createdAt,value
2019-03-29T00:04:01.249Z,12.20
2019-03-29T00:06:30.920Z,13.10
2019-03-29T00:09:00.304Z,13.37
2019-03-29T00:11:32.315Z,13.62
2019-03-29T00:14:01.730Z,12.90
2019-03-29T00:16:31.100Z,13.08
2019-03-29T00:19:01.341Z,14.33
2019-03-29T00:21:53.375Z,13.17
2019-03-29T00:24:22.849Z,12.93
2019-03-29T00:26:52.559Z,13.60
2019-03-29T00:29:29.991Z,13.53
2019-03-29T00:32:09.940Z,13.97
2019-03-29T00:34:39.320Z,13.25
2019-03-29T00:37:08.842Z,12.50
2019-03-29T00:39:38.229Z,13.80
2019-03-29T00:42:19.890Z,13.40
2019-03-29T00:44:49.269Z,11.87
2019-03-29T00:47:18.827Z,13.97
2019-03-29T00:49:48.212Z,13.17
2019-03-29T00:52:18.162Z,14.05
2019-03-29T00:54:47.846Z,13.72
2019-03-29T00:57:17.201Z,13.40
2019-03-29T00:59:46.784Z,13.67
2019-03-29T01:02:16.144Z,13.90
2019-03-29T01:04:58.012Z,12.87
2019-03-29T01:07:27.379Z,12.07
2019-03-29T01:10:16.368Z,14.20
2019-03-29T01:12:45.980Z,13.70
2019-03-29T01:15:15.364Z,13.60
2019-03-29T01:17:57.317Z,14.47
2019-03-29T01:20:27.005Z,14.53
2019-03-29T01:22:56.373Z,14.20
2019-03-29T01:25:26.059Z,15.17
2019-03-29T01:27:55.422Z,15.70
2019-03-29T01:30:25.252Z,14.50
2019-03-29T01:33:14.357Z,13.30
2019-03-29T01:35:45.329Z,15.60
2019-03-29T01:38:21.871Z,14.05
2019-03-29T01:41:17.205Z,15.43
2019-03-29T01:43:47.179Z,13.90
2019-03-29T01:46:16.843Z,13.48
2019-03-29T01:48:46.226Z,15.43
2019-03-29T01:51:15.957Z,14.80
2019-03-29T01:53:45.339Z,13.67
2019-03-29T01:56:15.175Z,14.95
2019-03-29T01:58:45.345Z,14.80
2019-03-29T02:01:54.364Z,14.00
2019-03-29T02:04:30.935Z,15.18
2019-03-29T02:07:00.304Z,14.37
2019-03-29T02:09:30.273Z,14.60
2019-03-29T02:12:07.134Z,14.87
2019-03-29T02:14:43.198Z,14.57
2019-03-29T02:17:12.578Z,14.70
2019-03-29T02:19:43.903Z,15.70
2019-03-29T02:22:13.285Z,15.17
2019-03-29T02:24:42.951Z,14.10
2019-03-29T02:27:12.336Z,15.97
2019-03-29T02:29:42.282Z,14.98
2019-03-29T02:32:31.079Z,14.67
2019-03-29T02:38:02.696Z,14.43
2019-03-29T02:40:32.285Z,14.90
2019-03-29T02:43:01.961Z,14.45
2019-03-29T02:45:31.377Z,14.70
2019-03-29T02:48:14.100Z,15.00
2019-03-29T02:50:43.723Z,16.47
2019-03-29T02:53:13.164Z,15.90
2019-03-29T02:55:44.156Z,16.03
2019-03-29T02:58:13.529Z,16.43
2019-03-29T03:01:02.527Z,14.90
2019-03-29T03:03:32.261Z,15.05
2019-03-29T03:06:01.656Z,15.70
2019-03-29T03:08:45.961Z,16.35
2019-03-29T03:11:21.511Z,15.40
2019-03-29T03:13:51.187Z,15.10
2019-03-29T03:16:22.166Z,14.70
2019-03-29T03:18:51.593Z,15.07
2019-03-29T03:21:21.411Z,16.00
2019-03-29T03:23:51.328Z,14.87
2019-03-29T03:26:20.755Z,16.13
2019-03-29T03:28:50.395Z,16.23
2019-03-29T03:31:20.059Z,17.32
2019-03-29T03:33:49.437Z,18.00
2019-03-29T03:36:20.644Z,19.10
2019-03-29T03:39:09.764Z,18.00
2019-03-29T03:41:39.424Z,18.23
2019-03-29T03:44:09.679Z,18.50
2019-03-29T03:46:39.337Z,16.75
2019-03-29T03:49:08.720Z,17.23
2019-03-29T03:51:38.370Z,17.23
2019-03-29T03:54:07.740Z,18.20
2019-03-29T03:56:37.459Z,18.20
2019-03-29T03:59:26.509Z,18.23
2019-03-29T04:01:56.165Z,17.48
2019-03-29T04:04:26.673Z,17.45
2019-03-29T04:06:56.040Z,17.67
2019-03-29T04:09:27.203Z,17.03
2019-03-29T04:11:56.630Z,17.73
2019-03-29T04:14:26.302Z,17.15
2019-03-29T04:16:55.658Z,16.83
2019-03-29T04:19:25.771Z,17.45
2019-03-29T04:21:55.344Z,17.10
2019-03-29T04:24:43.820Z,16.37
2019-03-29T04:30:09.389Z,17.00
2019-03-29T04:32:38.764Z,17.05
2019-03-29T04:35:09.250Z,15.30
2019-03-29T04:37:38.606Z,14.83
2019-03-29T04:40:09.224Z,14.65
2019-03-29T04:42:45.356Z,15.33
2019-03-29T04:45:27.417Z,16.80
2019-03-29T04:48:17.531Z,15.80
2019-03-29T04:51:06.538Z,16.48
2019-03-29T04:53:36.470Z,14.85
2019-03-29T04:56:05.841Z,14.17
2019-03-29T04:58:35.834Z,13.57
2019-03-29T05:01:05.600Z,13.40
2019-03-29T05:03:35.269Z,14.78
2019-03-29T05:06:04.656Z,15.10
2019-03-29T05:08:34.080Z,13.85
2019-03-29T05:11:03.464Z,22.83
2019-03-29T05:13:32.868Z,17.30
2019-03-29T05:16:02.382Z,16.40
2019-03-29T05:18:46.505Z,16.10
2019-03-29T05:21:22.436Z,13.60
2019-03-29T05:23:51.808Z,12.90
2019-03-29T05:26:33.551Z,12.33
2019-03-29T05:29:02.905Z,13.00
2019-03-29T05:31:32.593Z,11.63
2019-03-29T05:34:01.973Z,10.83
2019-03-29T05:36:31.724Z,10.47
2019-03-29T05:39:01.115Z,9.57
2019-03-29T05:41:30.764Z,9.70
2019-03-29T05:47:35.185Z,10.40
2019-03-29T05:50:18.187Z,10.43
2019-03-29T05:53:27.685Z,10.67
2019-03-29T05:55:57.136Z,10.80
2019-03-29T05:58:26.535Z,10.50
2019-03-29T06:00:55.899Z,11.37
2019-03-29T06:03:26.127Z,11.53
2019-03-29T06:05:55.628Z,11.40
2019-03-29T06:08:25.885Z,12.33
2019-03-29T06:10:55.542Z,12.28
2019-03-29T06:13:26.318Z,12.75
2019-03-29T06:15:55.702Z,12.50
2019-03-29T06:18:25.965Z,12.50
2019-03-29T06:20:55.626Z,14.13
2019-03-29T06:23:25.989Z,14.50
2019-03-29T06:25:55.620Z,13.33
2019-03-29T06:28:25.950Z,14.18
2019-03-29T06:30:55.621Z,14.75
2019-03-29T06:33:25.949Z,13.80
2019-03-29T06:42:00.772Z,16.57
2019-03-29T06:44:30.127Z,16.37
2019-03-29T06:46:59.783Z,17.03
2019-03-29T06:49:29.774Z,16.85
2019-03-29T06:51:59.136Z,17.70
2019-03-29T06:54:28.810Z,16.37
2019-03-29T06:56:58.451Z,16.20
2019-03-29T06:59:28.306Z,17.87
2019-03-29T07:02:03.735Z,16.37
2019-03-29T07:04:33.105Z,17.97
2019-03-29T07:07:02.748Z,18.80
2019-03-29T07:09:32.117Z,17.85
2019-03-29T07:12:14.014Z,18.60
2019-03-29T07:14:43.685Z,18.20
2019-03-29T07:17:13.099Z,18.37
2019-03-29T07:19:42.751Z,19.60
2019-03-29T07:22:12.369Z,19.87
2019-03-29T07:24:42.074Z,19.60
2019-03-29T07:27:11.737Z,25.45
2019-03-29T07:32:22.149Z,22.60
2019-03-29T07:34:51.933Z,23.47
2019-03-29T07:37:21.326Z,21.97
2019-03-29T07:39:53.747Z,27.40
2019-03-29T07:42:41.341Z,30.00
2019-03-29T07:45:10.942Z,26.00
2019-03-29T07:47:40.320Z,25.93
2019-03-29T07:50:10.030Z,25.27
2019-03-29T07:52:52.735Z,24.92
2019-03-29T07:55:22.099Z,23.20
2019-03-29T07:57:51.802Z,24.07
2019-03-29T08:00:21.168Z,22.00
2019-03-29T08:02:50.900Z,21.70
2019-03-29T08:05:20.277Z,21.90
2019-03-29T08:07:49.891Z,21.77
2019-03-29T08:10:27.362Z,18.33
2019-03-29T08:12:57.003Z,18.60
2019-03-29T08:15:26.382Z,17.70
2019-03-29T08:17:55.933Z,15.70
2019-03-29T08:20:40.250Z,17.67
2019-03-29T08:22:57.355Z,17.00
2019-03-29T08:25:27.062Z,16.93
2019-03-29T08:27:57.006Z,16.52
2019-03-29T08:30:27.946Z,16.90
2019-03-29T08:32:57.325Z,17.53
2019-03-29T08:35:28.315Z,16.33
2019-03-29T08:37:57.878Z,14.83
2019-03-29T08:40:27.250Z,15.53
2019-03-29T08:42:57.110Z,15.40
2019-03-29T08:45:26.550Z,16.50
2019-03-29T08:47:56.318Z,15.97
2019-03-29T08:50:26.409Z,16.30
2019-03-29T08:52:55.932Z,16.40
2019-03-29T08:55:26.287Z,15.93
2019-03-29T08:57:55.891Z,14.90
2019-03-29T09:00:30.718Z,14.07
2019-03-29T09:03:00.100Z,14.17
2019-03-29T09:05:29.561Z,15.37
2019-03-29T09:07:59.537Z,15.30
2019-03-29T09:10:29.397Z,14.93
2019-03-29T09:12:58.931Z,14.60
2019-03-29T09:15:28.315Z,15.37
2019-03-29T09:17:59.820Z,12.98
2019-03-29T09:20:29.355Z,14.60
2019-03-29T09:22:59.241Z,13.57
2019-03-29T09:25:28.897Z,13.30
2019-03-29T09:27:58.271Z,14.40
2019-03-29T09:30:30.840Z,12.30
2019-03-29T09:33:00.224Z,12.93
2019-03-29T09:35:29.905Z,14.15
2019-03-29T09:38:00.332Z,13.30
2019-03-29T09:40:30.248Z,14.20
2019-03-29T09:43:07.200Z,13.13
2019-03-29T09:45:31.283Z,11.90
2019-03-29T09:48:00.670Z,12.90
2019-03-29T09:50:30.242Z,12.17
2019-03-29T09:53:01.463Z,13.15
2019-03-29T09:55:31.576Z,12.37
2019-03-29T09:58:01.565Z,14.93
2019-03-29T10:00:31.231Z,14.30
2019-03-29T10:03:00.614Z,13.17
2019-03-29T10:05:31.521Z,14.10
2019-03-29T10:08:02.139Z,12.40
2019-03-29T10:10:34.531Z,12.10
2019-03-29T10:13:04.128Z,12.27
2019-03-29T10:15:34.221Z,13.05
2019-03-29T10:18:03.855Z,12.33
2019-03-29T10:20:33.416Z,12.27
2019-03-29T10:23:03.090Z,13.13
2019-03-29T10:25:32.465Z,13.43
2019-03-29T10:28:02.124Z,12.93
2019-03-29T10:30:40.725Z,13.60
2019-03-29T10:33:10.313Z,13.10
2019-03-29T10:35:51.385Z,13.17
2019-03-29T10:38:11.217Z,14.50
2019-03-29T10:40:40.902Z,13.03
2019-03-29T10:43:10.262Z,12.30
2019-03-29T10:45:40.746Z,12.10
2019-03-29T10:48:10.325Z,13.10
2019-03-29T10:50:39.713Z,12.50
2019-03-29T10:53:10.819Z,13.23
2019-03-29T10:55:41.278Z,13.40
2019-03-29T10:58:10.668Z,13.37
2019-03-29T11:00:41.278Z,12.87
2019-03-29T11:03:10.659Z,14.00
2019-03-29T11:05:40.585Z,14.55
2019-03-29T11:08:11.979Z,14.93
2019-03-29T11:10:41.603Z,14.17
2019-03-29T11:13:13.893Z,13.10
2019-03-29T11:15:42.498Z,13.50
2019-03-29T11:18:11.867Z,14.20
2019-03-29T11:20:41.558Z,14.53
2019-03-29T11:23:11.251Z,14.65
2019-03-29T11:25:40.684Z,14.28
2019-03-29T11:28:10.366Z,15.27
2019-03-29T11:30:42.410Z,13.87
2019-03-29T11:33:11.363Z,17.47
2019-03-29T11:35:42.089Z,16.53
2019-03-29T11:38:12.030Z,16.90
2019-03-29T11:40:41.641Z,17.13
2019-03-29T11:43:25.710Z,17.07
2019-03-29T11:45:43.669Z,16.93
2019-03-29T11:48:14.305Z,16.45
2019-03-29T11:50:43.686Z,17.63
2019-03-29T11:53:13.400Z,17.20
2019-03-29T11:55:42.777Z,15.20
2019-03-29T11:58:12.324Z,14.83
2019-03-29T12:00:42.082Z,14.07
2019-03-29T12:03:11.525Z,14.77
2019-03-29T12:05:40.926Z,14.47
2019-03-29T12:08:10.434Z,14.50
2019-03-29T12:10:39.823Z,13.83
2019-03-29T12:13:09.896Z,13.70
2019-03-29T12:15:39.648Z,14.43
2019-03-29T12:18:09.142Z,13.47
2019-03-29T12:20:39.025Z,14.07
2019-03-29T12:23:11.233Z,14.50
2019-03-29T12:25:40.711Z,13.97
2019-03-29T12:28:11.705Z,14.65
2019-03-29T12:30:42.055Z,14.90
2019-03-29T12:33:11.629Z,14.63
2019-03-29T12:35:42.783Z,13.50
2019-03-29T12:38:12.493Z,13.53
2019-03-29T12:40:45.035Z,14.60
2019-03-29T12:43:13.059Z,14.00
2019-03-29T12:45:42.785Z,14.43
2019-03-29T12:48:12.147Z,13.87
2019-03-29T12:50:41.828Z,13.70
2019-03-29T12:53:11.480Z,14.50
2019-03-29T12:55:41.169Z,14.50
2019-03-29T12:58:10.541Z,14.90
2019-03-29T13:00:42.021Z,15.50
2019-03-29T13:03:11.606Z,14.73
2019-03-29T13:05:41.016Z,14.60
2019-03-29T13:08:10.569Z,14.77
2019-03-29T13:10:42.555Z,16.40
2019-03-29T13:13:11.740Z,14.63
2019-03-29T13:15:41.960Z,15.28
2019-03-29T13:18:11.665Z,17.23
2019-03-29T13:20:41.061Z,14.83
2019-03-29T13:23:10.537Z,15.53
2019-03-29T13:25:39.922Z,15.30
2019-03-29T13:28:10.547Z,15.43
2019-03-29T13:30:40.232Z,17.87
2019-03-29T13:33:09.665Z,17.20
2019-03-29T13:35:39.044Z,17.37
2019-03-29T13:38:08.625Z,16.30
2019-03-29T13:40:37.958Z,15.03
2019-03-29T13:43:07.616Z,16.43
2019-03-29T13:45:37.000Z,15.00
2019-03-29T13:48:06.659Z,15.70
2019-03-29T13:50:36.182Z,16.03
2019-03-29T13:53:05.689Z,16.00
2019-03-29T13:55:35.075Z,15.20
2019-03-29T13:58:04.743Z,16.75
2019-03-29T14:00:34.127Z,15.33
2019-03-29T14:03:03.674Z,15.43
2019-03-29T14:05:34.601Z,14.70
2019-03-29T14:08:03.987Z,14.13
2019-03-29T14:10:33.900Z,15.60
2019-03-29T14:13:03.280Z,14.33
2019-03-29T14:15:32.980Z,14.67
2019-03-29T14:18:02.663Z,15.90
2019-03-29T14:20:35.019Z,14.57
2019-03-29T14:23:04.886Z,15.47
2019-03-29T14:25:34.851Z,15.08
2019-03-29T14:28:04.227Z,14.87
2019-03-29T14:30:33.901Z,15.23
2019-03-29T14:33:03.653Z,14.35
2019-03-29T14:35:33.040Z,15.72
2019-03-29T14:38:02.716Z,14.85
2019-03-29T14:40:32.645Z,14.70
2019-03-29T14:43:02.031Z,15.97
2019-03-29T14:45:31.694Z,14.13
2019-03-29T14:48:01.075Z,14.10
2019-03-29T14:50:30.733Z,14.23
2019-03-29T14:53:00.102Z,15.97
2019-03-29T14:55:29.769Z,16.42
2019-03-29T14:57:59.143Z,15.37
2019-03-29T15:00:40.790Z,15.10
2019-03-29T15:03:10.328Z,14.90
2019-03-29T15:05:40.212Z,14.20
2019-03-29T15:08:09.790Z,16.47
2019-03-29T15:10:39.150Z,15.23
2019-03-29T15:13:08.536Z,16.00
2019-03-29T15:15:38.203Z,16.30
2019-03-29T15:18:07.852Z,13.47
2019-03-29T15:20:52.146Z,15.30
2019-03-29T15:23:09.990Z,14.53
2019-03-29T15:25:40.839Z,14.07
2019-03-29T15:28:10.355Z,13.63
2019-03-29T15:30:40.288Z,13.22
2019-03-29T15:33:11.367Z,15.40
2019-03-29T15:35:41.048Z,15.90
2019-03-29T15:38:10.729Z,14.97
2019-03-29T15:40:40.644Z,15.17
2019-03-29T15:43:10.027Z,15.60
2019-03-29T15:45:39.390Z,14.70
2019-03-29T15:48:08.924Z,14.40
2019-03-29T15:50:38.369Z,14.73
2019-03-29T15:53:08.922Z,14.83
2019-03-29T15:55:38.579Z,14.23
2019-03-29T15:58:08.003Z,14.40
2019-03-29T16:00:37.368Z,14.23
2019-03-29T16:03:06.960Z,14.50
2019-03-29T16:05:36.429Z,13.50
2019-03-29T16:08:06.249Z,14.30
2019-03-29T16:10:37.199Z,14.50
2019-03-29T16:13:06.577Z,13.93
2019-03-29T16:15:38.220Z,13.93
2019-03-29T16:18:08.996Z,13.17
2019-03-29T16:20:38.539Z,13.23
2019-03-29T16:23:10.052Z,13.93
2019-03-29T16:25:39.720Z,13.70
2019-03-29T16:28:10.751Z,13.90
2019-03-29T16:30:40.303Z,13.30
2019-03-29T16:33:09.979Z,13.90
2019-03-29T16:35:39.344Z,15.00
2019-03-29T16:38:09.050Z,13.93
2019-03-29T16:40:38.432Z,15.35
2019-03-29T16:43:08.105Z,14.60
2019-03-29T16:45:47.654Z,15.67
2019-03-29T16:48:08.555Z,14.53
2019-03-29T16:50:38.216Z,14.07
2019-03-29T16:53:07.604Z,15.80
2019-03-29T16:55:38.792Z,15.05
2019-03-29T16:58:08.171Z,15.53
2019-03-29T17:00:37.536Z,15.90
2019-03-29T17:03:08.360Z,16.00
2019-03-29T17:05:38.040Z,18.73
2019-03-29T17:08:07.416Z,15.67
2019-03-29T17:10:37.345Z,17.80
2019-03-29T17:13:06.722Z,16.87
2019-03-29T17:15:36.642Z,17.40
2019-03-29T17:18:06.135Z,15.40
2019-03-29T17:20:35.493Z,14.80
2019-03-29T17:23:06.291Z,15.73
2019-03-29T17:25:35.656Z,15.05
2019-03-29T17:28:05.231Z,14.63
2019-03-29T17:30:37.312Z,15.60
2019-03-29T17:33:07.130Z,15.43
2019-03-29T17:35:36.649Z,15.97
2019-03-29T17:38:06.118Z,15.53
2019-03-29T17:40:35.495Z,15.90
2019-03-29T17:43:05.484Z,15.50
2019-03-29T17:45:36.136Z,16.37
2019-03-29T17:48:07.920Z,16.60
2019-03-29T17:50:37.312Z,16.97
2019-03-29T17:53:08.285Z,15.40
2019-03-29T17:55:37.677Z,16.45
2019-03-29T17:58:07.358Z,17.50
2019-03-29T18:00:36.765Z,16.30
2019-03-29T18:03:06.236Z,16.60
2019-03-29T18:05:35.634Z,15.58
2019-03-29T18:08:05.139Z,17.20
2019-03-29T18:10:34.830Z,16.97
2019-03-29T18:13:04.296Z,16.43
2019-03-29T18:15:33.678Z,15.50
2019-03-29T18:18:03.270Z,15.63
2019-03-29T18:20:32.646Z,16.10
2019-03-29T18:23:02.218Z,16.27
2019-03-29T18:25:31.855Z,16.57
2019-03-29T18:28:02.237Z,16.90
2019-03-29T18:30:36.763Z,17.13
2019-03-29T18:33:08.273Z,16.30
2019-03-29T18:35:37.720Z,16.50
2019-03-29T18:38:07.267Z,17.70
2019-03-29T18:40:36.951Z,18.70
2019-03-29T18:43:06.381Z,16.57
2019-03-29T18:45:35.760Z,17.23
2019-03-29T18:48:05.414Z,16.83
2019-03-29T18:50:35.449Z,17.77
2019-03-29T18:53:05.783Z,16.57
2019-03-29T18:55:35.589Z,17.90
2019-03-29T18:58:06.022Z,18.40
2019-03-29T19:00:36.037Z,21.60
2019-03-29T19:03:05.430Z,20.03
2019-03-29T19:05:34.883Z,18.90
2019-03-29T19:08:04.408Z,18.87
2019-03-29T19:10:33.789Z,20.37
2019-03-29T19:13:03.729Z,18.90
2019-03-29T19:15:33.435Z,21.40
2019-03-29T19:18:02.809Z,20.50
2019-03-29T19:20:32.484Z,21.05
2019-03-29T19:23:02.413Z,19.40
2019-03-29T19:25:31.789Z,20.15
2019-03-29T19:28:01.409Z,19.57
2019-03-29T19:30:30.795Z,18.57
2019-03-29T19:33:00.645Z,20.20
2019-03-29T19:35:30.024Z,19.23
2019-03-29T19:37:59.486Z,19.33
2019-03-29T19:40:28.865Z,20.37
2019-03-29T19:42:58.382Z,19.67
2019-03-29T19:45:27.877Z,19.87
2019-03-29T19:47:57.771Z,20.60
2019-03-29T19:50:28.085Z,21.12
2019-03-29T19:52:57.564Z,21.83
2019-03-29T19:55:28.131Z,21.70
2019-03-29T19:57:57.573Z,20.43
2019-03-29T20:00:38.947Z,21.07
2019-03-29T20:03:09.978Z,20.33
2019-03-29T20:05:40.620Z,21.27
2019-03-29T20:08:09.986Z,20.43
2019-03-29T20:10:41.025Z,19.87
2019-03-29T20:13:11.475Z,21.77
2019-03-29T20:15:40.859Z,20.70
2019-03-29T20:18:10.497Z,20.53
2019-03-29T20:20:40.159Z,21.00
2019-03-29T20:23:09.861Z,21.60
2019-03-29T20:25:39.518Z,20.70
2019-03-29T20:28:08.977Z,20.03
2019-03-29T20:30:39.607Z,20.52
2019-03-29T20:33:09.021Z,19.80
2019-03-29T20:35:38.681Z,19.80
2019-03-29T20:38:08.065Z,21.10
2019-03-29T20:40:37.681Z,22.00
2019-03-29T20:43:07.056Z,23.23
2019-03-29T20:45:36.723Z,24.53
2019-03-29T20:48:06.099Z,22.00
2019-03-29T20:50:35.807Z,22.45
2019-03-29T20:53:06.124Z,22.13
2019-03-29T20:55:35.794Z,22.52
2019-03-29T20:58:06.536Z,21.23
2019-03-29T21:00:37.171Z,22.17
2019-03-29T21:03:06.664Z,24.33
2019-03-29T21:05:37.314Z,22.80
2019-03-29T21:08:06.700Z,21.90
2019-03-29T21:10:36.058Z,23.13
2019-03-29T21:13:07.208Z,22.97
2019-03-29T21:15:37.095Z,21.80
2019-03-29T21:18:06.630Z,22.10
2019-03-29T21:20:35.995Z,23.35
2019-03-29T21:23:06.797Z,22.80
2019-03-29T21:25:36.164Z,21.93
2019-03-29T21:28:05.655Z,22.77
2019-03-29T21:30:36.036Z,22.10
2019-03-29T21:33:05.648Z,22.70
2019-03-29T21:35:35.368Z,22.97
2019-03-29T21:38:04.777Z,22.07
2019-03-29T21:40:34.385Z,23.77
2019-03-29T21:43:03.763Z,22.00
2019-03-29T21:45:33.198Z,21.77
2019-03-29T21:48:26.874Z,21.50
2019-03-29T21:50:34.219Z,20.48
2019-03-29T21:53:03.989Z,21.47
2019-03-29T21:55:33.655Z,21.07
2019-03-29T21:58:03.096Z,22.63
2019-03-29T22:00:32.764Z,20.88
2019-03-29T22:03:02.457Z,22.67
2019-03-29T22:05:31.997Z,24.15
2019-03-29T22:08:01.378Z,24.40
2019-03-29T22:10:31.034Z,21.77
2019-03-29T22:13:00.755Z,23.13
2019-03-29T22:15:30.120Z,23.00
2019-03-29T22:17:59.761Z,22.27
2019-03-29T22:20:29.741Z,25.20
2019-03-29T22:22:59.111Z,23.53
2019-03-29T22:25:29.251Z,22.60
2019-03-29T22:27:58.917Z,22.63
2019-03-29T22:30:28.311Z,24.50
2019-03-29T22:32:57.790Z,23.17
2019-03-29T22:35:28.115Z,22.90
2019-03-29T22:37:57.791Z,22.58
2019-03-29T22:40:28.930Z,22.80
2019-03-29T22:42:58.309Z,23.97
2019-03-29T22:45:28.461Z,24.90
2019-03-29T22:47:57.833Z,25.20
2019-03-29T22:50:28.252Z,23.77
2019-03-29T22:52:58.208Z,25.23
2019-03-29T22:55:28.271Z,25.50
2019-03-29T22:57:59.437Z,24.93
2019-03-29T23:00:39.151Z,23.33
2019-03-29T23:03:10.159Z,24.67
2019-03-29T23:05:40.127Z,23.85
2019-03-29T23:08:09.501Z,25.03
2019-03-29T23:10:39.161Z,24.23
2019-03-29T23:13:08.837Z,25.95
2019-03-29T23:15:38.198Z,26.30
2019-03-29T23:18:07.873Z,24.65
2019-03-29T23:20:37.237Z,26.33
2019-03-29T23:23:08.042Z,25.88
2019-03-29T23:25:37.414Z,24.97
2019-03-29T23:28:07.403Z,25.23
2019-03-29T23:30:37.079Z,25.43
2019-03-29T23:33:06.456Z,24.80
2019-03-29T23:35:37.048Z,25.60
2019-03-29T23:38:06.433Z,24.10
2019-03-29T23:40:37.430Z,24.10
2019-03-29T23:43:07.031Z,25.40
2019-03-29T23:45:36.405Z,24.80
2019-03-29T23:48:05.997Z,24.20
2019-03-29T23:50:35.906Z,24.90
2019-03-29T23:53:07.090Z,23.20
2019-03-29T23:55:36.459Z,24.57
2019-03-29T23:58:06.313Z,23.80
